KGNT

Grants-Milan Municipal Airport

Grants, New Mexico, USA
METAR KGNT 191515Z AUTO 00000KT 10SM CLR 17/10 A3031 RMK AO2 T01710104
Observed Flight Rules
Aug-19 @ 15:15 UTC (24 minutes ago) Visual Flight Rules
Visibility Clouds
10 miles
  • Clear skies
Temperatures Readings
Current 17°C / 63°F
Dewpoint 10°C / 50°F
Humidity 64%
Altimeter 30.31" Hg
Pressure 1026 hPa
Elevation 1987
METAR KGNT 191515Z AUTO 00000KT 10SM CLR 17/10 A3031 RMK AO2 T01710104
Observed Flight Rules
Aug-19 @ 15:15 UTC
(24 minutes ago)
VFR
Clouds
  • Clear skies
Temperature Dewpoint
17°C / 63°F 10°C / 50°F
Humidity Altimeter Pressure
64% 30.31" Hg 1026 hPa